Time;durP1;ratioP1;P1;durP2;ratioP2;P2;SDS_P1;SDS_P2;PMS_P1;PMS_P2;Temp;Humidity;BMP_temperature;BMP_pressure;BME280_temperature;BME280_humidity;BME280_pressure;Samples;Min_cycle;Max_cycle;Signal;HPM_P1;HPM_P2
2022/07/23 00:01:51;;;;;;;6.80;6.20;;;28.70;48.30;;;;;;4895663;29;20418;-82
2022/07/23 00:11:25;;;;;;;6.50;5.77;;;28.70;48.30;;;;;;4878146;29;20517;-83
2022/07/23 00:16:58;;;;;;;;;;;;;;;;;;;;;
2022/07/23 00:19:26;;;;;;;7.37;6.00;;;28.70;48.30;;;;;;4878130;29;20409;-83
2022/07/23 00:21:57;;;;;;;6.80;6.20;;;28.70;48.30;;;;;;4881669;29;20427;-83
2022/07/23 00:24:26;;;;;;;6.23;5.63;;;28.80;48.20;;;;;;4945146;29;20465;-83
2022/07/23 00:27:14;;;;;;;5.80;5.30;;;28.70;48.00;;;;;;4976349;29;20386;-83
2022/07/23 00:30:06;;;;;;;6.40;5.77;;;28.80;48.20;;;;;;4960076;29;20453;-83
2022/07/23 00:32:58;;;;;;;;;;;;;;;;;;;;;
2022/07/23 00:35:33;;;;;;;7.17;6.47;;;28.80;48.20;;;;;;4975958;29;20426;-83
2022/07/23 00:38:16;;;;;;;;;;;;;;;;;;;;;
2022/07/23 00:40:51;;;;;;;6.20;5.60;;;28.70;48.20;;;;;;4975983;29;20455;-83
2022/07/23 00:43:23;;;;;;;5.97;5.47;;;28.70;48.20;;;;;;4959501;29;20461;-83
2022/07/23 00:46:01;;;;;;;7.73;6.97;;;28.70;48.10;;;;;;4943883;29;20414;-83
2022/07/23 00:48:43;;;;;;;;;;;;;;;;;;;;;
2022/07/23 00:51:13;;;;;;;6.97;6.37;;;28.80;48.20;;;;;;4976050;29;20426;-83
2022/07/23 00:53:58;;;;;;;;;;;;;;;;;;;;;
2022/07/23 00:56:29;;;;;;;6.57;5.90;;;28.80;48.30;;;;;;4986690;28;20435;-83
2022/07/23 00:59:15;;;;;;;6.30;5.80;;;28.80;48.20;;;;;;4997797;28;20492;-83
2022/07/23 01:01:47;;;;;;;6.90;6.37;;;28.80;48.20;;;;;;5015080;28;20463;-83
2022/07/23 01:04:15;;;;;;;6.90;6.30;;;28.70;48.20;;;;;;5014118;28;20467;-83
2022/07/23 01:06:42;;;;;;;6.83;6.23;;;28.70;48.20;;;;;;5015511;28;20392;-83
2022/07/23 01:09:16;;;;;;;7.07;6.40;;;28.80;48.20;;;;;;4999052;28;20417;-83
2022/07/23 01:11:55;;;;;;;;;;;;;;;;;;;;;
2022/07/23 01:14:32;;;;;;;6.77;6.07;;;28.80;48.20;;;;;;5014309;28;20420;-83
2022/07/23 01:17:05;;;;;;;6.97;6.37;;;28.70;48.10;;;;;;4983652;28;20452;-83
2022/07/23 01:19:35;;;;;;;6.23;5.67;;;28.70;48.20;;;;;;5006879;28;20444;-83
2022/07/23 01:22:09;;;;;;;7.33;6.70;;;28.80;48.30;;;;;;5013624;28;20475;-83
2022/07/23 01:24:35;;;;;;;6.57;6.00;;;28.80;48.30;;;;;;4998224;28;20476;-83
2022/07/23 01:27:05;;;;;;;7.93;6.73;;;28.80;48.30;;;;;;5013350;28;20409;-83
2022/07/23 01:29:46;;;;;;;;;;;;;;;;;;;;;
2022/07/23 01:32:17;;;;;;;7.30;6.70;;;28.80;48.30;;;;;;5013642;28;20476;-83
2022/07/23 01:34:42;;;;;;;7.30;6.70;;;28.80;48.30;;;;;;4992350;28;20416;-84
2022/07/23 01:37:09;;;;;;;7.37;6.17;;;28.70;48.20;;;;;;5006823;28;20440;-84
2022/07/23 01:39:45;;;;;;;;;;;;;;;;;;;;;
2022/07/23 01:42:11;;;;;;;6.83;6.17;;;28.70;48.20;;;;;;5007501;28;20452;-83
2022/07/23 01:44:42;;;;;;;7.10;6.50;;;28.70;48.30;;;;;;5006616;28;20452;-82
2022/07/23 01:47:08;;;;;;;6.80;6.20;;;28.70;48.30;;;;;;5007077;28;20403;-82
2022/07/23 01:49:36;;;;;;;7.60;6.90;;;28.70;48.30;;;;;;5006722;28;20420;-82
2022/07/23 01:52:12;;;;;;;;;;;;;;;;;;;;;
2022/07/23 01:54:39;;;;;;;8.57;7.77;;;28.80;48.40;;;;;;5007403;28;20472;-82
2022/07/23 01:57:15;;;;;;;7.73;6.60;;;28.70;48.30;;;;;;5006854;28;20415;-82
2022/07/23 01:59:41;;;;;;;7.90;7.13;;;28.80;48.30;;;;;;4987858;28;20416;-83
2022/07/23 02:02:24;;;;;;;7.33;6.63;;;28.80;48.30;;;;;;4989762;28;20414;-83
2022/07/23 02:05:03;;;;;;;7.90;7.20;;;28.80;48.30;;;;;;5037938;28;20208;-83
2022/07/23 02:07:49;;;;;;;;;;;;;;;;;;;;;
2022/07/23 02:10:21;;;;;;;7.97;7.17;;;28.80;48.30;;;;;;5054534;28;20450;-83
2022/07/23 02:12:47;;;;;;;7.33;6.70;;;28.70;48.30;;;;;;5031823;28;20488;-83
2022/07/23 02:15:17;;;;;;;8.40;7.70;;;28.80;48.30;;;;;;5031072;28;20411;-82
2022/07/23 02:17:43;;;;;;;6.70;6.10;;;28.80;48.30;;;;;;5048376;28;20498;-82
2022/07/23 02:20:19;;;;;;;7.33;6.73;;;28.80;48.30;;;;;;5030644;28;20859;-83
2022/07/23 02:22:47;;;;;;;6.70;6.10;;;28.80;48.30;;;;;;5031407;28;20182;-82
2022/07/23 02:25:13;;;;;;;6.40;5.90;;;28.80;48.30;;;;;;5048753;28;20410;-82
2022/07/23 02:27:52;;;;;;;;;;;;;;;;;;;;;
2022/07/23 02:30:39;;;;;;;7.23;6.53;;;28.80;48.30;;;;;;5069105;28;20472;-83
2022/07/23 02:33:11;;;;;;;6.83;6.20;;;28.80;48.40;;;;;;5051367;28;20409;-83
2022/07/23 02:35:46;;;;;;;7.83;7.13;;;28.70;48.30;;;;;;5048944;28;20399;-82
2022/07/23 02:38:12;;;;;;;6.90;6.30;;;28.80;48.30;;;;;;5050164;28;20429;-82
2022/07/23 02:44:00;;;;;;;7.13;6.43;;;28.70;48.30;;;;;;5049237;28;20469;-83
2022/07/23 02:46:43;;;;;;;6.73;6.10;;;28.70;48.30;;;;;;5047484;28;20423;-83
2022/07/23 02:49:09;;;;;;;7.60;6.90;;;28.70;48.40;;;;;;5047011;28;20414;-84
2022/07/23 02:51:47;;;;;;;;;;;;;;;;;;;;;
2022/07/23 02:54:14;;;;;;;7.03;6.43;;;28.70;48.40;;;;;;5048094;28;20478;-83
2022/07/23 02:56:40;;;;;;;7.43;6.67;;;28.70;48.40;;;;;;5030608;28;20449;-83
2022/07/23 02:59:11;;;;;;;6.80;6.20;;;28.70;48.50;;;;;;5048139;28;20438;-83
2022/07/23 03:01:47;;;;;;;8.30;7.07;;;28.70;48.50;;;;;;5047498;28;20419;-83
2022/07/23 03:04:13;;;;;;;7.27;6.67;;;28.70;48.50;;;;;;5047470;28;20521;-83
2022/07/23 03:06:41;;;;;;;7.37;6.70;;;28.70;48.50;;;;;;5047522;28;20502;-83
2022/07/23 03:09:11;;;;;;;7.00;6.40;;;28.70;48.50;;;;;;5059074;28;20418;-83
2022/07/23 03:11:37;;;;;;;7.67;7.07;;;28.70;48.50;;;;;;5050900;28;20426;-83
2022/07/23 03:14:08;;;;;;;6.80;6.23;;;28.70;48.40;;;;;;5050732;28;20414;-83
2022/07/23 03:16:36;;;;;;;7.27;6.50;;;28.70;48.40;;;;;;5050806;28;20488;-83
2022/07/23 03:19:03;;;;;;;7.70;6.90;;;28.70;48.40;;;;;;5049684;28;20418;-83
2022/07/23 03:21:29;;;;;;;7.00;6.43;;;28.70;48.40;;;;;;5049245;28;20413;-83
2022/07/23 03:24:09;;;;;;;7.40;6.70;;;28.70;48.40;;;;;;5048506;28;20458;-83
2022/07/23 03:26:38;;;;;;;6.73;6.20;;;28.80;48.40;;;;;;5066303;28;20443;-83
2022/07/23 03:29:06;;;;;;;7.80;7.03;;;28.70;48.30;;;;;;5048520;28;20428;-83
2022/07/23 03:31:32;;;;;;;7.23;6.63;;;28.70;48.30;;;;;;5048951;28;20414;-83
2022/07/23 03:33:58;;;;;;;8.10;6.70;;;28.70;48.30;;;;;;5047715;28;20402;-83
2022/07/23 03:36:26;;;;;;;7.87;7.20;;;28.70;48.30;;;;;;5047378;28;20182;-83
2022/07/23 03:38:52;;;;;;;8.60;7.43;;;28.70;48.30;;;;;;5047682;28;20419;-83
2022/07/23 03:41:22;;;;;;;9.33;6.97;;;28.70;48.30;;;;;;5047254;28;20417;-84
2022/07/23 03:43:48;;;;;;;7.77;7.07;;;28.70;48.30;;;;;;5047351;28;20458;-83
2022/07/23 03:49:36;;;;;;;7.77;7.07;;;28.70;48.40;;;;;;5065259;28;20504;-83
2022/07/23 03:52:02;;;;;;;8.33;7.33;;;28.60;48.30;;;;;;5047302;28;20413;-83
2022/07/23 03:54:28;;;;;;;8.03;7.27;;;28.60;48.40;;;;;;5047720;28;20184;-83
2022/07/23 03:56:54;;;;;;;7.73;7.03;;;28.60;48.30;;;;;;5046984;28;20469;-83
2022/07/23 03:59:20;;;;;;;7.13;6.53;;;28.60;48.30;;;;;;5049009;28;20413;-84
2022/07/23 04:01:56;;;;;;;;;;;;;;;;;;;;;
2022/07/23 04:04:23;;;;;;;6.97;6.20;;;28.60;48.30;;;;;;5069342;28;20274;-82
2022/07/23 04:06:48;;;;;;;8.93;7.93;;;28.60;48.30;;;;;;5051294;28;20414;-82
2022/07/23 04:09:14;;;;;;;7.77;6.80;;;28.60;47.80;;;;;;5050900;28;20186;-82
2022/07/23 04:11:40;;;;;;;8.10;7.03;;;28.60;48.30;;;;;;5051695;28;20183;-83
2022/07/23 04:14:11;;;;;;;7.60;6.90;;;28.60;48.30;;;;;;5068984;28;20424;-82
2022/07/23 04:16:37;;;;;;;7.20;6.50;;;28.60;48.30;;;;;;5050726;28;20193;-82
2022/07/23 04:19:04;;;;;;;7.33;6.63;;;28.60;48.30;;;;;;5052030;28;20409;-83
2022/07/23 04:21:30;;;;;;;8.00;7.20;;;28.60;48.30;;;;;;5052028;28;20447;-83
2022/07/23 04:23:56;;;;;;;7.50;6.60;;;28.60;48.30;;;;;;5053096;28;20465;-82
2022/07/23 04:26:22;;;;;;;7.07;6.47;;;28.60;48.30;;;;;;5242228;22;20418;-82
2022/07/23 04:28:47;;;;;;;7.63;6.93;;;28.60;48.30;;;;;;4999247;28;1714289;-82
2022/07/23 04:31:13;;;;;;;7.40;6.70;;;28.60;48.30;;;;;;5093930;28;20416;-82
2022/07/23 04:33:39;;;;;;;6.73;6.10;;;28.60;48.30;;;;;;5076682;28;20413;-82
2022/07/23 04:36:05;;;;;;;8.20;7.50;;;28.60;48.30;;;;;;5059782;28;20446;-82
2022/07/23 04:38:32;;;;;;;7.40;6.70;;;28.60;48.30;;;;;;5076361;28;20174;-83
2022/07/23 04:40:58;;;;;;;8.00;7.30;;;28.60;48.30;;;;;;5093676;28;20411;-82
2022/07/23 04:43:24;;;;;;;7.90;7.20;;;28.60;48.20;;;;;;5075784;28;20448;-83
2022/07/23 04:49:12;;;;;;;8.00;7.23;;;28.60;48.30;;;;;;5093948;28;20161;-83
2022/07/23 04:52:15;;;;;;;7.70;6.87;;;28.60;48.30;;;;;;5075578;28;20409;-83
2022/07/23 04:54:41;;;;;;;7.60;6.90;;;28.50;48.30;;;;;;5076416;28;20177;-83
2022/07/23 04:57:07;;;;;;;7.80;7.00;;;28.60;48.40;;;;;;5076243;28;20442;-83
2022/07/23 04:59:33;;;;;;;8.00;7.20;;;28.60;48.40;;;;;;5075956;28;20492;-83
2022/07/23 05:02:01;;;;;;;6.90;6.30;;;28.60;48.30;;;;;;5092738;28;20252;-83
2022/07/23 05:04:27;;;;;;;8.40;7.00;;;28.60;48.30;;;;;;5093767;28;20452;-83
2022/07/23 05:06:53;;;;;;;6.57;6.03;;;28.60;48.40;;;;;;5077061;28;20442;-84
2022/07/23 05:09:19;;;;;;;7.90;7.20;;;28.60;48.40;;;;;;5077087;28;20404;-83
2022/07/23 05:11:45;;;;;;;7.40;6.73;;;28.60;48.30;;;;;;5091972;28;20409;-83
2022/07/23 05:14:12;;;;;;;8.03;7.33;;;28.60;48.30;;;;;;5075936;28;20432;-84
2022/07/23 05:16:38;;;;;;;7.60;6.90;;;28.60;48.30;;;;;;5076341;28;20404;-83
2022/07/23 05:19:05;;;;;;;6.60;6.10;;;28.60;48.30;;;;;;5072963;28;20458;-84
2022/07/23 05:21:31;;;;;;;7.77;6.97;;;28.60;48.30;;;;;;5059942;28;20413;-83
2022/07/23 05:24:00;;;;;;;8.77;7.90;;;28.70;48.40;;;;;;5092822;28;20448;-83
2022/07/23 05:26:26;;;;;;;7.93;7.23;;;28.60;48.30;;;;;;5075205;28;20413;-83
2022/07/23 05:28:55;;;;;;;8.60;7.47;;;28.60;48.30;;;;;;5074989;28;20452;-84
2022/07/23 05:31:21;;;;;;;7.60;6.93;;;28.60;48.30;;;;;;5076392;28;20409;-83
2022/07/23 05:33:47;;;;;;;8.20;7.53;;;28.60;48.30;;;;;;5075850;28;20500;-83
2022/07/23 05:36:20;;;;;;;7.77;7.00;;;28.60;48.30;;;;;;5093729;28;20408;-83
2022/07/23 05:38:46;;;;;;;7.40;6.70;;;28.60;48.30;;;;;;5075387;28;20416;-84
2022/07/23 05:41:12;;;;;;;8.60;7.80;;;28.60;48.30;;;;;;5075973;28;20425;-84
2022/07/23 05:43:38;;;;;;;7.60;6.90;;;28.60;48.30;;;;;;5075754;28;20448;-83
2022/07/23 05:46:04;;;;;;;7.30;6.70;;;28.60;48.40;;;;;;5076137;28;20445;-84
2022/07/23 05:48:30;;;;;;;8.63;7.00;;;28.60;48.40;;;;;;5092961;28;20670;-83
2022/07/23 05:54:21;;;;;;;6.63;6.03;;;28.60;48.50;;;;;;5093357;28;20400;-84
2022/07/23 05:56:47;;;;;;;7.40;6.80;;;28.50;48.50;;;;;;5058817;28;20416;-83
2022/07/23 05:59:14;;;;;;;8.10;7.30;;;28.50;48.50;;;;;;5075787;28;20421;-83
2022/07/23 06:01:43;;;;;;;8.20;7.50;;;28.60;48.60;;;;;;5075707;28;20413;-83
2022/07/23 06:04:09;;;;;;;8.23;7.53;;;28.60;48.70;;;;;;5075054;28;20461;-84
2022/07/23 06:06:35;;;;;;;8.03;7.33;;;28.60;48.70;;;;;;5074838;28;20412;-83
2022/07/23 06:09:01;;;;;;;7.97;7.27;;;28.60;48.70;;;;;;5075238;28;20484;-83
2022/07/23 06:11:35;;;;;;;7.83;7.13;;;28.60;48.70;;;;;;5075361;28;20615;-83
2022/07/23 06:14:07;;;;;;;7.27;6.50;;;28.60;48.70;;;;;;5075413;28;20412;-83
2022/07/23 06:16:33;;;;;;;7.70;6.87;;;28.60;49.30;;;;;;5075062;28;20409;-83
2022/07/23 06:18:59;;;;;;;8.40;7.60;;;28.60;48.70;;;;;;5075459;28;20441;-84
2022/07/23 06:21:30;;;;;;;8.07;7.37;;;28.50;48.60;;;;;;5093108;28;20179;-82
2022/07/23 06:23:56;;;;;;;9.00;8.30;;;28.60;48.70;;;;;;5093516;28;20210;-83
2022/07/23 06:26:25;;;;;;;7.43;6.73;;;28.60;48.70;;;;;;5076152;28;20401;-83
2022/07/23 06:28:56;;;;;;;8.10;7.40;;;28.60;48.70;;;;;;5093754;28;20436;-81
2022/07/23 06:31:30;;;;;;;8.43;7.73;;;28.60;48.70;;;;;;5077920;28;20401;-81
2022/07/23 06:34:18;;;;;;;7.80;7.10;;;28.60;48.70;;;;;;5063005;28;20403;-81
2022/07/23 06:36:56;;;;;;;9.23;8.33;;;28.70;48.80;;;;;;5069889;28;20427;-81
2022/07/23 06:39:31;;;;;;;8.40;7.70;;;28.70;48.80;;;;;;5077931;28;20412;-81
2022/07/23 06:42:04;;;;;;;7.97;7.17;;;28.70;48.70;;;;;;5077671;28;20423;-81
2022/07/23 06:44:30;;;;;;;7.87;7.20;;;28.70;48.70;;;;;;5077039;28;20449;-82
2022/07/23 06:47:02;;;;;;;8.20;7.50;;;28.70;48.70;;;;;;5077098;28;20405;-81
2022/07/23 06:49:31;;;;;;;8.97;8.13;;;28.70;48.60;;;;;;5077691;28;20412;-82
2022/07/23 06:52:01;;;;;;;8.17;7.30;;;28.70;48.60;;;;;;5060973;28;20463;-82
2022/07/23 06:54:28;;;;;;;8.70;7.93;;;28.70;48.60;;;;;;5077294;28;20468;-82
2022/07/23 06:57:01;;;;;;;8.17;7.43;;;28.70;48.60;;;;;;5060022;28;20424;-82
2022/07/23 06:59:29;;;;;;;12.50;8.40;;;28.70;48.60;;;;;;5076871;28;20424;-81
2022/07/23 07:05:20;;;;;;;8.13;7.43;;;28.70;48.50;;;;;;5093614;28;20448;-81
2022/07/23 07:07:52;;;;;;;8.00;7.10;;;28.70;48.60;;;;;;5060228;28;20416;-83
2022/07/23 07:10:21;;;;;;;8.60;7.80;;;28.70;48.60;;;;;;5076097;28;20443;-83
2022/07/23 07:13:10;;;;;;;7.90;6.83;;;28.70;48.70;;;;;;5076814;28;20456;-82
2022/07/23 07:15:45;;;;;;;8.70;7.80;;;28.70;48.60;;;;;;5078853;28;20435;-83
2022/07/23 07:18:12;;;;;;;7.40;6.70;;;28.70;48.60;;;;;;5076214;28;20416;-83
2022/07/23 07:24:02;;;;;;;8.00;7.30;;;28.70;48.60;;;;;;5093702;28;20447;-82
2022/07/23 07:29:51;;;;;;;7.47;6.87;;;28.70;48.70;;;;;;5092644;28;20446;-81
2022/07/23 07:32:19;;;;;;;6.37;5.80;;;28.70;48.70;;;;;;5074583;28;20500;-82
2022/07/23 07:34:55;;;;;;;7.30;6.60;;;28.70;48.70;;;;;;5075497;28;20413;-82
2022/07/23 07:37:29;;;;;;;7.77;6.97;;;28.70;48.70;;;;;;5075019;28;20401;-82
2022/07/23 07:39:56;;;;;;;7.60;6.70;;;28.70;48.80;;;;;;5075922;28;20396;-82
2022/07/23 07:42:35;;;;;;;6.93;6.33;;;28.70;48.90;;;;;;5075489;28;20459;-84
2022/07/23 07:48:40;;;;;;;7.07;6.43;;;28.70;48.90;;;;;;5094559;28;20400;-83
2022/07/23 07:51:14;;;;;;;7.10;6.27;;;28.70;48.90;;;;;;5094209;28;20393;-83
2022/07/23 07:54:48;;;;;;;;;;;;;;;;;;;;;
2022/07/23 07:57:41;;;;;;;6.17;5.57;;;28.70;48.90;;;;;;5012966;28;20443;-83
2022/07/23 08:00:17;;;;;;;8.17;5.53;;;28.70;48.90;;;;;;4992386;28;20515;-82
2022/07/23 08:13:35;;;;;;;5.73;5.10;;;28.70;49.00;;;;;;4956393;29;20410;-82
2022/07/23 08:16:05;;;;;;;5.60;5.10;;;28.60;49.00;;;;;;4954068;29;20435;-81
2022/07/23 08:18:33;;;;;;;5.70;5.13;;;28.60;49.10;;;;;;4956247;29;20447;-82
2022/07/23 08:21:26;;;;;;;6.57;5.97;;;28.60;49.10;;;;;;4954165;29;20443;-82
2022/07/23 08:24:02;;;;;;;5.70;5.20;;;28.60;49.00;;;;;;4955201;29;20542;-83
2022/07/23 08:26:54;;;;;;;6.40;5.90;;;28.70;49.20;;;;;;4934441;29;20539;-83
2022/07/23 08:29:26;;;;;;;6.40;4.87;;;28.70;49.20;;;;;;4933174;29;20443;-83
2022/07/23 08:32:04;;;;;;;7.43;5.60;;;28.70;49.30;;;;;;4939209;29;20427;-83
2022/07/23 08:34:41;;;;;;;7.07;5.10;;;28.70;49.40;;;;;;4987950;28;20408;-82
2022/07/23 08:37:11;;;;;;;5.27;4.87;;;28.70;49.40;;;;;;4982072;28;20420;-83
2022/07/23 08:39:42;;;;;;;5.50;5.00;;;28.60;49.20;;;;;;4997622;28;20843;-82
2022/07/23 08:42:11;;;;;;;5.57;5.07;;;28.60;49.20;;;;;;5061941;28;20438;-82
2022/07/23 08:44:47;;;;;;;5.63;5.07;;;28.60;49.20;;;;;;5075533;28;20506;-83
2022/07/23 08:50:30;;;;;;;6.10;5.50;;;28.70;49.40;;;;;;5097452;28;20447;-82
2022/07/23 08:53:07;;;;;;;6.57;4.83;;;28.70;49.40;;;;;;5063857;28;20407;-82
2022/07/23 09:05:53;;;;;;;7.63;5.70;;;28.70;49.40;;;;;;5097048;28;20427;-82
2022/07/23 09:08:48;;;;;;;5.73;5.10;;;28.60;49.50;;;;;;5078546;28;20702;-82
2022/07/23 09:14:53;;;;;;;6.23;5.10;;;28.60;49.40;;;;;;5036828;28;20489;-82
2022/07/23 09:17:23;;;;;;;6.13;5.40;;;28.70;49.70;;;;;;5079141;28;20397;-82
2022/07/23 09:20:09;;;;;;;5.50;5.00;;;28.70;49.80;;;;;;5078601;28;20397;-80
2022/07/23 09:25:58;;;;;;;8.30;6.10;;;28.70;49.70;;;;;;5093278;28;20388;-82
2022/07/23 09:28:28;;;;;;;8.00;5.40;;;28.70;49.80;;;;;;5057914;28;20428;-82
2022/07/23 09:30:57;;;;;;;6.37;5.77;;;28.70;49.80;;;;;;5074371;28;20458;-82
2022/07/23 09:33:26;;;;;;;6.37;5.80;;;28.70;49.80;;;;;;5074737;28;20440;-81
2022/07/23 09:35:54;;;;;;;12.00;6.50;;;28.70;49.80;;;;;;5073780;28;20404;-81
2022/07/23 09:38:27;;;;;;;7.13;6.43;;;28.70;49.90;;;;;;5091620;28;20400;-81
2022/07/23 09:41:13;;;;;;;7.13;6.43;;;28.70;49.80;;;;;;5074115;28;20447;-82
2022/07/23 09:43:41;;;;;;;6.53;5.80;;;28.70;49.90;;;;;;5070733;28;20456;-82
2022/07/23 09:46:25;;;;;;;6.80;6.20;;;28.70;49.80;;;;;;5074284;28;20401;-82
2022/07/23 09:48:52;;;;;;;7.30;6.70;;;28.70;49.80;;;;;;5074869;28;20492;-82
2022/07/23 09:51:32;;;;;;;7.70;6.90;;;28.70;50.10;;;;;;5092957;28;20412;-82
2022/07/23 09:53:59;;;;;;;7.50;6.80;;;28.70;49.90;;;;;;5075287;28;20709;-82
2022/07/23 09:56:35;;;;;;;7.27;6.57;;;28.70;49.90;;;;;;5054024;28;20457;-81
2022/07/23 09:59:17;;;;;;;6.67;6.07;;;28.70;49.90;;;;;;5091424;28;20412;-81
2022/07/23 10:01:58;;;;;;;;;;;;;;;;;;;;;
2022/07/23 10:04:31;;;;;;;6.73;6.13;;;28.70;49.90;;;;;;5092591;28;20472;-81
2022/07/23 10:07:10;;;;;;;7.23;6.63;;;28.70;50.00;;;;;;5074631;28;20409;-81
2022/07/23 10:09:43;;;;;;;6.60;5.90;;;28.70;50.00;;;;;;5075232;28;20428;-82
2022/07/23 10:14:40;;;;;;;6.80;6.20;;;28.80;50.00;;;;;;5092411;28;20417;-82
2022/07/23 10:17:10;;;;;;;7.07;6.37;;;28.70;50.00;;;;;;5091939;28;20401;-82
2022/07/23 10:19:39;;;;;;;6.53;6.03;;;28.80;49.90;;;;;;5074034;28;20527;-81
2022/07/23 10:22:11;;;;;;;6.13;5.63;;;28.80;50.00;;;;;;5071279;28;20485;-81
2022/07/23 10:24:55;;;;;;;7.80;7.07;;;28.80;49.90;;;;;;5075071;28;20506;-81
2022/07/23 10:27:35;;;;;;;7.43;6.73;;;28.80;49.90;;;;;;5071857;28;20432;-81
2022/07/23 10:30:27;;;;;;;8.30;7.07;;;28.80;49.90;;;;;;5073521;28;20430;-81
2022/07/23 10:33:38;;;;;;;8.70;6.33;;;28.80;49.90;;;;;;5075535;28;20420;-81
2022/07/23 10:36:20;;;;;;;7.20;6.50;;;28.80;49.90;;;;;;5002444;28;20419;-82
2022/07/23 10:39:06;;;;;;;7.77;7.07;;;28.80;49.90;;;;;;5007357;28;20499;-82
2022/07/23 10:42:14;;;;;;;7.17;6.57;;;28.80;49.90;;;;;;4949303;29;20426;-81
2022/07/23 10:44:45;;;;;;;7.47;6.77;;;28.80;49.90;;;;;;4920329;29;20512;-82
2022/07/23 10:50:35;;;;;;;7.07;6.43;;;28.80;49.80;;;;;;4944866;29;20776;-82
2022/07/23 10:53:38;;;;;;;;;;;;;;;;;;;;;
2022/07/23 10:56:13;;;;;;;8.20;7.50;;;28.80;49.90;;;;;;4938737;29;20458;-82
2022/07/23 10:58:49;;;;;;;8.13;7.43;;;28.80;49.90;;;;;;4923485;29;20491;-82
2022/07/23 11:01:41;;;;;;;7.63;6.97;;;28.80;49.80;;;;;;4947051;29;20860;-82
2022/07/23 11:04:12;;;;;;;7.30;6.70;;;28.80;50.30;;;;;;4929720;29;21124;-82
2022/07/23 11:06:52;;;;;;;7.57;6.87;;;28.80;49.70;;;;;;4927697;29;20458;-82
2022/07/23 11:09:40;;;;;;;8.50;7.80;;;28.80;49.70;;;;;;4928016;29;20407;-82
2022/07/23 11:12:42;;;;;;;8.50;7.70;;;28.90;49.80;;;;;;4952225;28;20411;-82
2022/07/23 11:15:14;;;;;;;8.40;7.70;;;28.80;49.80;;;;;;4938865;29;20529;-82
2022/07/23 11:17:43;;;;;;;7.63;6.93;;;28.80;49.80;;;;;;4941720;28;20437;-82
2022/07/23 11:20:11;;;;;;;8.60;7.83;;;28.80;49.80;;;;;;4994666;28;20765;-81
2022/07/23 11:22:43;;;;;;;9.20;8.40;;;28.80;49.80;;;;;;5028723;28;20431;-81
2022/07/23 11:25:13;;;;;;;8.30;7.50;;;28.90;49.90;;;;;;5028994;28;20478;-81
2022/07/23 11:27:47;;;;;;;7.03;6.43;;;28.80;49.80;;;;;;5027852;28;20419;-82
2022/07/23 11:30:43;;;;;;;7.97;7.27;;;28.80;49.70;;;;;;5011667;28;20432;-82
2022/07/23 11:33:19;;;;;;;7.73;7.03;;;28.90;49.70;;;;;;4995313;28;20789;-82
2022/07/23 11:36:02;;;;;;;8.33;7.50;;;28.80;49.70;;;;;;5027530;28;20431;-82
2022/07/23 11:38:38;;;;;;;7.70;6.57;;;28.80;49.70;;;;;;5027596;28;20485;-83
2022/07/23 11:41:08;;;;;;;7.97;7.20;;;28.90;49.70;;;;;;5027179;28;20411;-82
2022/07/23 11:43:37;;;;;;;7.50;6.90;;;28.90;49.70;;;;;;5027254;28;20593;-82
2022/07/23 11:46:05;;;;;;;7.50;6.80;;;28.90;49.70;;;;;;5028551;28;20419;-82
2022/07/23 11:49:11;;;;;;;7.77;7.10;;;28.90;49.70;;;;;;5028954;28;20416;-81
2022/07/23 11:51:44;;;;;;;8.00;7.40;;;28.90;49.60;;;;;;5072876;28;20412;-80
2022/07/23 11:54:16;;;;;;;8.83;7.03;;;28.90;49.70;;;;;;5089753;28;20424;-81
2022/07/23 11:56:59;;;;;;;7.97;7.27;;;28.90;49.70;;;;;;5073673;28;20424;-82
2022/07/23 11:59:28;;;;;;;7.50;6.83;;;28.90;49.70;;;;;;5057765;28;20408;-82
2022/07/23 12:02:09;;;;;;;7.60;6.53;;;28.90;49.60;;;;;;5073726;28;20857;-85
2022/07/23 12:04:40;;;;;;;8.10;7.40;;;28.90;49.70;;;;;;5071855;28;20452;-82
2022/07/23 12:07:33;;;;;;;6.97;6.37;;;28.90;49.70;;;;;;5074045;28;20401;-81
2022/07/23 12:10:03;;;;;;;7.87;7.13;;;28.90;49.60;;;;;;5074059;28;20451;-82
2022/07/23 12:12:44;;;;;;;7.47;6.83;;;28.90;49.60;;;;;;5074155;28;20503;-82
2022/07/23 12:15:16;;;;;;;7.53;6.83;;;28.90;49.60;;;;;;5091916;28;20414;-81
2022/07/23 12:17:46;;;;;;;7.30;6.60;;;28.90;49.60;;;;;;5073568;28;20408;-82
2022/07/23 12:20:21;;;;;;;12.90;8.17;;;28.90;49.50;;;;;;5075044;28;20405;-81
2022/07/23 12:22:49;;;;;;;8.50;6.73;;;28.90;49.50;;;;;;5077126;28;20400;-81
2022/07/23 12:25:22;;;;;;;7.40;6.80;;;28.90;49.50;;;;;;5078121;28;20519;-81
2022/07/23 12:28:16;;;;;;;7.90;7.03;;;28.90;49.50;;;;;;5077561;28;20480;-82
2022/07/23 12:34:18;;;;;;;8.43;7.63;;;28.90;49.50;;;;;;5094740;28;20404;-82
2022/07/23 12:36:45;;;;;;;7.87;7.17;;;28.90;50.10;;;;;;5076826;28;20447;-81
2022/07/23 12:39:10;;;;;;;8.43;7.10;;;28.90;49.50;;;;;;5077042;28;20409;-81
2022/07/23 12:41:54;;;;;;;8.97;7.17;;;28.90;49.50;;;;;;5077666;28;20450;-81
2022/07/23 12:44:21;;;;;;;7.73;7.03;;;28.90;49.40;;;;;;5076413;28;20202;-81
2022/07/23 12:46:53;;;;;;;7.60;6.90;;;28.90;49.40;;;;;;5077263;28;20409;-81
2022/07/23 12:49:26;;;;;;;7.47;6.77;;;28.90;49.50;;;;;;5060960;28;20474;-81
2022/07/23 12:51:55;;;;;;;8.37;7.47;;;28.90;49.50;;;;;;5077009;28;20411;-81
2022/07/23 12:54:34;;;;;;;8.87;7.37;;;28.90;49.50;;;;;;5077271;28;20408;-82
2022/07/23 12:57:05;;;;;;;7.67;6.93;;;28.90;49.50;;;;;;5076148;28;20408;-82
2022/07/23 12:59:31;;;;;;;7.57;6.97;;;28.90;49.50;;;;;;5060222;28;20425;-82
2022/07/23 13:01:58;;;;;;;8.50;7.60;;;28.90;49.40;;;;;;5076187;28;20412;-80
2022/07/23 13:04:25;;;;;;;7.27;6.57;;;29.00;49.40;;;;;;5075295;28;20459;-80
2022/07/23 13:10:23;;;;;;;6.80;6.10;;;29.00;49.40;;;;;;5063455;28;20442;-82
2022/07/23 13:12:49;;;;;;;7.27;6.60;;;28.90;49.40;;;;;;5076432;28;20408;-82
2022/07/23 13:15:15;;;;;;;7.93;6.70;;;28.90;49.40;;;;;;5075346;28;20420;-81
2022/07/23 13:17:48;;;;;;;6.90;6.30;;;28.90;49.40;;;;;;5075715;28;20449;-81
2022/07/23 13:20:15;;;;;;;11.30;7.80;;;28.90;49.30;;;;;;5076387;28;20702;-80
2022/07/23 13:23:06;;;;;;;7.60;6.80;;;29.00;49.30;;;;;;5076422;28;20421;-80
2022/07/23 13:25:32;;;;;;;7.00;6.40;;;28.90;49.20;;;;;;5093472;28;20464;-81
2022/07/23 13:27:58;;;;;;;6.90;6.30;;;28.90;49.20;;;;;;5058808;28;20413;-81
2022/07/23 13:30:27;;;;;;;7.50;6.80;;;28.90;49.10;;;;;;5075624;28;20464;-80
2022/07/23 13:32:55;;;;;;;7.70;7.00;;;28.90;49.10;;;;;;5092305;28;20389;-82
2022/07/23 13:35:40;;;;;;;8.20;7.40;;;29.00;49.00;;;;;;5091874;28;20425;-81
2022/07/23 13:38:09;;;;;;;7.77;7.07;;;28.90;48.90;;;;;;5075310;28;20405;-80
2022/07/23 13:40:38;;;;;;;7.03;6.43;;;28.90;48.90;;;;;;5058917;28;20417;-82
2022/07/23 13:43:10;;;;;;;6.77;6.13;;;29.00;48.90;;;;;;5073792;28;20409;-81
2022/07/23 13:45:38;;;;;;;7.50;6.80;;;29.00;48.80;;;;;;5075861;28;20413;-82
2022/07/23 13:48:10;;;;;;;7.00;6.40;;;29.00;48.70;;;;;;5075812;28;20423;-82
2022/07/23 13:50:40;;;;;;;7.27;6.67;;;29.00;48.80;;;;;;5077002;28;20484;-81
2022/07/23 13:53:12;;;;;;;6.60;6.00;;;29.00;48.70;;;;;;5075697;28;20405;-81
2022/07/23 13:55:39;;;;;;;6.93;6.13;;;29.00;48.70;;;;;;5077460;28;20503;-81
2022/07/23 13:58:08;;;;;;;7.13;6.00;;;29.00;48.60;;;;;;5076391;28;20436;-80
2022/07/23 14:00:39;;;;;;;7.20;6.53;;;29.00;48.50;;;;;;5076412;28;20418;-80
2022/07/23 14:03:05;;;;;;;7.10;6.47;;;29.00;48.50;;;;;;5078096;28;20401;-80
2022/07/23 14:05:32;;;;;;;6.43;5.83;;;29.00;48.40;;;;;;5094122;28;20487;-81
2022/07/23 14:07:58;;;;;;;6.17;5.67;;;29.00;48.40;;;;;;5058945;28;20420;-81
2022/07/23 14:10:25;;;;;;;6.57;5.87;;;29.00;48.50;;;;;;5059480;28;20423;-80
2022/07/23 14:12:57;;;;;;;7.33;6.60;;;29.00;48.50;;;;;;5093337;28;20408;-81
2022/07/23 14:15:24;;;;;;;7.33;6.67;;;29.00;48.40;;;;;;5093433;28;20465;-81
2022/07/23 14:17:50;;;;;;;7.57;6.87;;;29.00;48.40;;;;;;5075540;28;20484;-81
2022/07/23 14:20:17;;;;;;;6.10;5.50;;;29.00;48.30;;;;;;5075232;28;20462;-81
2022/07/23 14:22:43;;;;;;;6.30;5.70;;;29.00;48.30;;;;;;5075019;28;20428;-81
2022/07/23 14:25:09;;;;;;;6.83;6.27;;;29.00;48.30;;;;;;5092817;28;20448;-82
2022/07/23 14:27:42;;;;;;;8.80;7.30;;;29.00;48.30;;;;;;5075141;28;20443;-81
2022/07/23 14:30:15;;;;;;;9.80;6.47;;;29.00;48.10;;;;;;5074666;28;20413;-82
2022/07/23 14:32:42;;;;;;;7.23;6.63;;;29.00;48.00;;;;;;5109470;28;20909;-82
2022/07/23 14:35:11;;;;;;;7.87;5.90;;;28.90;47.90;;;;;;5058055;28;20429;-82
2022/07/23 14:37:45;;;;;;;7.20;6.33;;;28.90;47.90;;;;;;5057980;28;20528;-82
2022/07/23 14:40:15;;;;;;;7.27;5.87;;;29.00;48.10;;;;;;5076751;28;20428;-81
2022/07/23 14:42:41;;;;;;;6.47;5.97;;;29.00;48.10;;;;;;5091039;28;20443;-81
2022/07/23 14:45:10;;;;;;;7.03;6.13;;;29.00;48.00;;;;;;5081731;28;20518;-82
2022/07/23 14:47:36;;;;;;;7.17;6.50;;;28.90;47.80;;;;;;5075576;28;20417;-80
2022/07/23 14:50:02;;;;;;;7.17;6.57;;;28.90;47.90;;;;;;5057867;28;20418;-81
2022/07/23 14:52:37;;;;;;;6.73;6.10;;;28.90;47.80;;;;;;5075125;28;20409;-81
2022/07/23 14:55:05;;;;;;;6.20;5.60;;;28.90;47.80;;;;;;5098903;28;20408;-79